createdAt,value
2023-04-17T00:03:12.162Z,85.62
2023-04-17T00:08:14.590Z,85.74
2023-04-17T00:13:16.170Z,85.62
2023-04-17T00:18:17.984Z,85.98
2023-04-17T00:23:19.558Z,86.01
2023-04-17T00:28:21.113Z,85.92
2023-04-17T00:33:22.865Z,86.00
2023-04-17T00:38:24.496Z,86.00
2023-04-17T00:43:26.187Z,85.94
2023-04-17T00:48:28.436Z,86.42
2023-04-17T00:53:31.721Z,86.51
2023-04-17T00:58:35.500Z,86.76
2023-04-17T01:03:37.829Z,86.66
2023-04-17T01:08:41.504Z,86.71
2023-04-17T01:13:47.153Z,86.94
2023-04-17T01:18:49.065Z,86.96
2023-04-17T01:23:54.549Z,86.89
2023-04-17T01:29:00.820Z,86.93
2023-04-17T01:34:05.060Z,86.91
2023-04-17T01:39:07.420Z,86.80
2023-04-17T01:44:09.165Z,86.81
2023-04-17T01:49:11.843Z,86.82
2023-04-17T01:54:15.412Z,86.98
2023-04-17T01:59:17.577Z,86.85
2023-04-17T02:04:19.338Z,86.38
2023-04-17T02:09:21.010Z,86.79
2023-04-17T02:14:23.120Z,86.55
2023-04-17T02:19:24.946Z,86.31
2023-04-17T02:24:26.577Z,86.11
2023-04-17T02:29:28.562Z,85.60
2023-04-17T02:34:32.045Z,85.62
2023-04-17T02:39:35.128Z,85.37
2023-04-17T02:44:37.141Z,84.56
2023-04-17T02:49:38.843Z,84.18
2023-04-17T02:54:40.541Z,84.61
2023-04-17T02:59:43.415Z,84.76
2023-04-17T03:04:45.188Z,85.19
2023-04-17T03:09:47.134Z,85.23
2023-04-17T03:14:49.163Z,85.78
2023-04-17T03:19:50.802Z,85.89
2023-04-17T03:24:52.425Z,86.38
2023-04-17T03:29:55.227Z,86.79
2023-04-17T03:34:58.260Z,87.10
2023-04-17T03:39:59.978Z,87.67
2023-04-17T03:45:03.373Z,87.41
2023-04-17T03:50:06.906Z,87.88
2023-04-17T03:55:13.918Z,88.01
2023-04-17T04:00:17.918Z,87.65
2023-04-17T04:05:27.713Z,87.32
2023-04-17T04:10:32.449Z,87.65
2023-04-17T04:15:34.663Z,88.03
2023-04-17T04:20:41.348Z,88.19
2023-04-17T04:25:49.641Z,88.40
2023-04-17T04:30:59.716Z,87.93
2023-04-17T04:36:06.099Z,88.39
2023-04-17T04:41:10.557Z,88.18
2023-04-17T04:46:14.128Z,88.52
2023-04-17T04:51:20.469Z,88.58
2023-04-17T04:56:24.490Z,88.64
2023-04-17T05:01:27.872Z,88.82
2023-04-17T05:06:31.225Z,89.07
2023-04-17T05:11:37.082Z,89.25
2023-04-17T05:16:38.818Z,89.45
2023-04-17T05:21:41.138Z,89.76
2023-04-17T05:26:43.278Z,89.65
2023-04-17T05:31:45.478Z,90.25
2023-04-17T05:37:00.754Z,90.46
2023-04-17T05:42:02.317Z,90.61
2023-04-17T05:47:04.120Z,91.16
2023-04-17T05:52:06.284Z,91.97
2023-04-17T05:57:12.749Z,92.76
2023-04-17T06:02:15.145Z,92.53
2023-04-17T06:07:17.015Z,92.31
2023-04-17T06:12:18.786Z,92.61
2023-04-17T06:17:21.219Z,92.38
2023-04-17T06:22:23.098Z,92.54
2023-04-17T06:27:24.745Z,92.47
2023-04-17T06:32:26.620Z,92.41
2023-04-17T06:37:28.356Z,92.28
2023-04-17T06:42:30.745Z,91.75
2023-04-17T06:47:36.845Z,91.73
2023-04-17T06:52:38.558Z,91.31
2023-04-17T06:57:40.219Z,91.18
2023-04-17T07:02:41.957Z,90.74
2023-04-17T07:07:43.607Z,89.73
2023-04-17T07:12:45.850Z,90.27
2023-04-17T07:17:47.527Z,89.54
2023-04-17T07:22:49.860Z,88.77
2023-04-17T07:27:51.412Z,88.23
2023-04-17T07:32:53.238Z,88.64
2023-04-17T07:37:58.048Z,88.90
2023-04-17T07:42:59.577Z,88.62
2023-04-17T07:48:01.305Z,87.50
2023-04-17T07:53:02.951Z,86.88
2023-04-17T07:58:06.440Z,86.43
2023-04-17T08:03:08.252Z,85.50
2023-04-17T08:08:09.971Z,84.89
2023-04-17T08:13:11.685Z,83.10
2023-04-17T08:18:13.853Z,83.09
2023-04-17T08:23:15.499Z,83.06
2023-04-17T08:28:17.399Z,82.99
2023-04-17T08:33:19.614Z,82.96
2023-04-17T08:38:25.466Z,81.41
2023-04-17T08:43:31.053Z,81.15
2023-04-17T08:48:32.722Z,79.40
2023-04-17T08:53:34.544Z,78.62
2023-04-17T08:58:36.470Z,78.66
2023-04-17T09:03:42.294Z,78.46
2023-04-17T09:09:00.667Z,76.72
2023-04-17T09:14:02.246Z,77.32
2023-04-17T09:19:07.772Z,76.53
2023-04-17T09:24:10.037Z,76.58
2023-04-17T09:29:13.803Z,75.82
2023-04-17T09:34:16.669Z,76.64
2023-04-17T09:39:20.706Z,76.71
2023-04-17T09:44:26.950Z,75.56
2023-04-17T09:49:34.472Z,74.84
2023-04-17T09:54:39.301Z,69.91
2023-04-17T09:59:45.190Z,68.60
2023-04-17T10:04:47.581Z,70.75
2023-04-17T10:09:49.195Z,69.47
2023-04-17T10:14:52.426Z,68.83
2023-04-17T10:19:54.348Z,70.15
2023-04-17T10:25:11.332Z,71.04
2023-04-17T10:30:13.809Z,72.18
2023-04-17T10:35:15.640Z,71.90
2023-04-17T10:40:21.519Z,72.75
2023-04-17T10:45:23.126Z,72.75
2023-04-17T10:50:28.420Z,72.94
2023-04-17T10:55:30.381Z,74.06
2023-04-17T11:00:39.525Z,74.38
2023-04-17T11:05:44.603Z,72.02
2023-04-17T11:10:46.255Z,72.27
2023-04-17T11:15:50.227Z,72.10
2023-04-17T11:20:52.265Z,71.04
2023-04-17T11:25:53.863Z,69.01
2023-04-17T11:30:55.608Z,68.34
2023-04-17T11:35:57.256Z,69.11
2023-04-17T11:41:00.042Z,66.34
2023-04-17T11:46:01.952Z,65.24
2023-04-17T11:51:04.362Z,65.07
2023-04-17T11:56:13.059Z,66.00
2023-04-17T12:01:15.132Z,66.30
2023-04-17T12:06:16.892Z,65.70
2023-04-17T12:11:34.364Z,66.16
2023-04-17T12:16:36.206Z,70.05
2023-04-17T12:21:37.841Z,73.73
2023-04-17T12:26:51.713Z,75.88
2023-04-17T12:31:53.349Z,77.48
2023-04-17T12:36:55.055Z,79.15
2023-04-17T12:41:56.572Z,80.02
2023-04-17T12:46:58.167Z,80.68
2023-04-17T12:52:03.613Z,81.07
2023-04-17T12:57:05.832Z,81.53
2023-04-17T13:02:08.104Z,82.27
2023-04-17T13:07:10.562Z,82.50
2023-04-17T13:12:13.091Z,83.12
2023-04-17T13:17:16.888Z,82.82
2023-04-17T13:22:20.580Z,83.62
2023-04-17T13:27:22.145Z,84.03
2023-04-17T13:32:23.843Z,84.92
2023-04-17T13:37:25.719Z,85.68
2023-04-17T13:42:27.584Z,85.89
2023-04-17T13:47:29.423Z,86.52
2023-04-17T13:52:30.990Z,85.85
2023-04-17T13:57:32.715Z,84.84
2023-04-17T14:02:34.628Z,85.00
2023-04-17T14:07:37.117Z,86.29
2023-04-17T14:12:39.221Z,88.20
2023-04-17T14:17:43.155Z,85.52
2023-04-17T14:22:45.729Z,87.43
2023-04-17T14:27:47.447Z,87.57
2023-04-17T14:32:49.469Z,85.50
2023-04-17T14:37:51.246Z,84.20
2023-04-17T14:42:54.834Z,81.30
2023-04-17T14:47:56.993Z,83.51
2023-04-17T14:52:58.682Z,82.16
2023-04-17T14:58:00.258Z,81.83
2023-04-17T15:03:02.348Z,82.57
2023-04-17T15:08:04.190Z,81.49
2023-04-17T15:13:05.907Z,83.01
2023-04-17T15:18:07.815Z,81.86
2023-04-17T15:23:09.542Z,83.38
2023-04-17T15:28:12.346Z,82.44
2023-04-17T15:33:13.974Z,82.94
2023-04-17T15:38:15.628Z,80.75
2023-04-17T15:43:17.298Z,80.58
2023-04-17T15:48:18.884Z,80.79
2023-04-17T15:53:20.578Z,79.52
2023-04-17T15:58:22.209Z,78.07
2023-04-17T16:03:24.480Z,78.95
2023-04-17T16:08:26.911Z,78.92
2023-04-17T16:13:28.555Z,80.05
2023-04-17T16:18:30.493Z,80.05
2023-04-17T16:23:33.184Z,79.58
2023-04-17T16:28:34.966Z,80.06
2023-04-17T16:33:36.557Z,80.65
2023-04-17T16:38:38.741Z,81.15
2023-04-17T16:43:42.531Z,81.95
2023-04-17T16:48:44.374Z,81.23
2023-04-17T16:53:46.891Z,80.36
2023-04-17T16:58:48.508Z,80.33
2023-04-17T17:03:50.450Z,80.98
2023-04-17T17:08:55.032Z,78.66
2023-04-17T17:13:57.811Z,78.95
2023-04-17T17:19:00.231Z,79.06
2023-04-17T17:24:01.909Z,79.28
2023-04-17T17:29:03.922Z,80.07
2023-04-17T17:34:22.663Z,81.04
2023-04-17T17:39:27.662Z,81.48
2023-04-17T17:44:29.258Z,82.29
2023-04-17T17:49:30.840Z,82.95
2023-04-17T17:54:38.584Z,82.99
2023-04-17T17:59:40.433Z,83.33
2023-04-17T18:04:42.208Z,83.83
2023-04-17T18:09:44.312Z,84.00
2023-04-17T18:14:45.989Z,84.45
2023-04-17T18:19:47.648Z,84.58
2023-04-17T18:24:54.543Z,84.47
2023-04-17T18:29:56.271Z,83.86
2023-04-17T18:34:58.320Z,84.05
2023-04-17T18:39:59.953Z,84.36
2023-04-17T18:45:01.930Z,84.11
2023-04-17T18:50:04.771Z,84.17
2023-04-17T18:55:07.095Z,84.38
2023-04-17T19:00:09.055Z,84.68
2023-04-17T19:05:10.686Z,84.86
2023-04-17T19:10:12.417Z,85.03
2023-04-17T19:15:17.369Z,84.77
2023-04-17T19:20:19.243Z,84.70
2023-04-17T19:25:20.823Z,85.01
2023-04-17T19:30:22.472Z,85.32
2023-04-17T19:35:24.666Z,85.32
2023-04-17T19:40:26.346Z,85.98
2023-04-17T19:45:28.645Z,86.37
2023-04-17T19:50:30.732Z,86.42
2023-04-17T19:55:32.312Z,86.61
2023-04-17T20:00:33.989Z,86.98
2023-04-17T20:05:36.160Z,87.35
2023-04-17T20:10:37.762Z,88.01
2023-04-17T20:15:39.822Z,88.50
2023-04-17T20:20:42.031Z,89.22
2023-04-17T20:25:43.710Z,90.25
2023-04-17T20:30:45.805Z,90.64
2023-04-17T20:35:47.511Z,90.86
2023-04-17T20:40:49.284Z,91.13
2023-04-17T20:45:51.360Z,91.21
2023-04-17T20:50:53.029Z,91.49
2023-04-17T20:55:56.568Z,91.26
2023-04-17T21:01:01.662Z,90.93
2023-04-17T21:06:03.710Z,90.89
2023-04-17T21:11:05.405Z,90.99
2023-04-17T21:16:09.708Z,91.15
2023-04-17T21:21:11.481Z,91.22
2023-04-17T21:26:13.212Z,91.78
2023-04-17T21:31:15.067Z,91.54
2023-04-17T21:36:16.856Z,91.30
2023-04-17T21:41:18.434Z,91.30
2023-04-17T21:46:20.156Z,91.35
2023-04-17T21:51:21.881Z,91.52
2023-04-17T21:56:24.049Z,91.18
2023-04-17T22:01:25.745Z,91.07
2023-04-17T22:06:27.523Z,91.49
2023-04-17T22:11:29.132Z,91.31
2023-04-17T22:16:30.817Z,91.19
2023-04-17T22:21:32.551Z,90.96
2023-04-17T22:26:34.143Z,90.55
2023-04-17T22:31:36.409Z,90.11
2023-04-17T22:36:38.182Z,90.57
2023-04-17T22:41:39.807Z,90.68
2023-04-17T22:46:41.526Z,90.66
2023-04-17T22:51:43.276Z,90.52
2023-04-17T22:56:44.901Z,90.30
2023-04-17T23:01:46.693Z,90.26
2023-04-17T23:06:48.329Z,90.10
2023-04-17T23:11:50.011Z,90.26
2023-04-17T23:16:52.819Z,90.38
2023-04-17T23:21:54.736Z,90.11
2023-04-17T23:26:56.316Z,90.43
2023-04-17T23:31:58.088Z,90.07
2023-04-17T23:36:59.638Z,90.08
2023-04-17T23:42:06.898Z,89.77
2023-04-17T23:47:08.663Z,89.67
2023-04-17T23:52:10.245Z,89.47
2023-04-17T23:57:12.025Z,89.58
